Time;durP1;ratioP1;P1;durP2;ratioP2;P2;SDS_P1;SDS_P2;PMS_P1;PMS_P2;Temp;Humidity;BMP_temperature;BMP_pressure;BME280_temperature;BME280_humidity;BME280_pressure;Samples;Min_cycle;Max_cycle;Signal;HPM_P1;HPM_P2
2023/08/31 00:00:31;;;;;;;2.38;0.40;;;;;;;;;;5059769;28;20111;-79
2023/08/31 00:03:00;;;;;;;1.48;0.38;;;;;;;;;;5059918;28;20104;-80
2023/08/31 00:05:32;;;;;;;2.40;0.50;;;;;;;;;;5059570;28;20087;-79
2023/08/31 00:07:58;;;;;;;3.88;0.52;;;;;;;;;;5059730;28;20029;-79
2023/08/31 00:10:24;;;;;;;2.58;0.60;;;;;;;;;;5059412;28;20107;-80
2023/08/31 00:12:51;;;;;;;2.20;0.40;;;;;;;;;;5059282;28;20056;-79
2023/08/31 00:15:17;;;;;;;2.13;0.40;;;;;;;;;;5059250;28;20511;-80
2023/08/31 00:17:43;;;;;;;1.60;0.50;;;;;;;;;;5071227;28;20089;-79
2023/08/31 00:20:11;;;;;;;0.95;0.60;;;;;;;;;;5042452;28;20025;-79
2023/08/31 00:22:38;;;;;;;2.70;0.65;;;;;;;;;;5059779;28;20031;-79
2023/08/31 00:25:05;;;;;;;3.80;0.70;;;;;;;;;;5078428;28;20017;-80
2023/08/31 00:27:31;;;;;;;5.45;0.80;;;;;;;;;;5079514;28;20724;-80
2023/08/31 00:29:58;;;;;;;1.88;0.50;;;;;;;;;;5077757;28;20111;-79
2023/08/31 00:32:24;;;;;;;1.58;0.43;;;;;;;;;;5076007;28;20363;-79
2023/08/31 00:34:50;;;;;;;0.40;0.30;;;;;;;;;;5075751;28;20042;-79
2023/08/31 00:37:16;;;;;;;2.83;0.60;;;;;;;;;;5049443;28;20029;-79
2023/08/31 00:39:43;;;;;;;1.45;0.43;;;;;;;;;;5034758;28;20032;-79
2023/08/31 00:42:09;;;;;;;5.03;0.57;;;;;;;;;;5034835;28;20093;-79
2023/08/31 00:44:36;;;;;;;3.45;0.68;;;;;;;;;;5036342;28;20025;-79
2023/08/31 00:47:28;;;;;;;3.33;0.50;;;;;;;;;;5035844;28;20496;-79
2023/08/31 00:49:58;;;;;;;3.03;1.02;;;;;;;;;;5036252;28;20032;-79
2023/08/31 00:52:24;;;;;;;;;;;;;;;;;;5054329;28;20387;-80
2023/08/31 00:54:51;;;;;;;3.95;0.90;;;;;;;;;;5056042;28;20252;-79
2023/08/31 00:57:17;;;;;;;3.05;0.55;;;;;;;;;;5055584;28;20040;-79
2023/08/31 00:59:43;;;;;;;7.75;0.82;;;;;;;;;;5055838;28;20021;-79
2023/08/31 01:02:09;;;;;;;4.05;0.82;;;;;;;;;;5037826;28;20025;-80
2023/08/31 01:05:02;;;;;;;2.92;0.47;;;;;;;;;;5055888;28;20108;-79
2023/08/31 01:07:37;;;;;;;1.92;0.50;;;;;;;;;;5046166;28;20094;-79
2023/08/31 01:10:23;;;;;;;1.70;0.52;;;;;;;;;;5045855;28;20407;-80
2023/08/31 01:13:04;;;;;;;2.53;0.50;;;;;;;;;;5055505;28;20510;-79
2023/08/31 01:15:31;;;;;;;1.85;0.55;;;;;;;;;;5054769;28;20079;-80
2023/08/31 01:17:58;;;;;;;5.22;0.80;;;;;;;;;;5055931;28;20537;-80
2023/08/31 01:20:44;;;;;;;3.13;0.45;;;;;;;;;;5055269;28;20388;-80
2023/08/31 01:23:14;;;;;;;1.00;0.40;;;;;;;;;;5055726;28;20119;-79
2023/08/31 01:25:42;;;;;;;3.92;0.50;;;;;;;;;;5055325;28;20025;-80
2023/08/31 01:28:09;;;;;;;1.08;0.40;;;;;;;;;;5055493;28;20107;-79
2023/08/31 01:30:35;;;;;;;4.25;0.63;;;;;;;;;;5055673;28;20029;-79
2023/08/31 01:33:02;;;;;;;2.75;0.50;;;;;;;;;;5055635;28;20036;-79
2023/08/31 01:35:30;;;;;;;1.73;0.50;;;;;;;;;;5054699;28;20444;-79
2023/08/31 01:38:03;;;;;;;3.17;0.40;;;;;;;;;;5054517;28;20464;-79
2023/08/31 01:40:36;;;;;;;2.15;0.43;;;;;;;;;;5062652;28;20052;-79
2023/08/31 01:43:04;;;;;;;2.50;0.40;;;;;;;;;;5053901;28;20036;-79
2023/08/31 01:45:31;;;;;;;3.15;0.52;;;;;;;;;;5054929;28;20021;-79
2023/08/31 01:47:57;;;;;;;1.33;0.43;;;;;;;;;;5055395;28;20036;-79
2023/08/31 01:50:23;;;;;;;1.40;0.40;;;;;;;;;;5055550;28;20407;-79
2023/08/31 01:52:49;;;;;;;2.17;0.52;;;;;;;;;;5055276;28;20100;-79
2023/08/31 01:55:15;;;;;;;5.05;0.40;;;;;;;;;;5055118;28;20099;-79
2023/08/31 01:57:42;;;;;;;5.68;1.23;;;;;;;;;;5055189;28;20085;-79
2023/08/31 02:00:09;;;;;;;4.88;0.60;;;;;;;;;;5036786;28;20020;-79
2023/08/31 02:02:35;;;;;;;1.67;0.43;;;;;;;;;;5055083;28;20029;-79
2023/08/31 02:05:03;;;;;;;3.30;0.50;;;;;;;;;;5054803;28;20036;-79
2023/08/31 02:07:29;;;;;;;5.43;0.65;;;;;;;;;;5055053;28;20049;-79
2023/08/31 02:09:55;;;;;;;5.28;0.52;;;;;;;;;;5054533;28;20071;-79
2023/08/31 02:12:21;;;;;;;1.13;0.40;;;;;;;;;;5054439;28;20523;-79
2023/08/31 02:14:47;;;;;;;2.58;0.47;;;;;;;;;;5041147;28;20055;-79
2023/08/31 02:17:13;;;;;;;4.43;0.40;;;;;;;;;;5040184;28;20052;-79
2023/08/31 02:19:39;;;;;;;5.05;0.68;;;;;;;;;;5054255;28;20383;-79
2023/08/31 02:22:05;;;;;;;4.38;0.70;;;;;;;;;;5054291;28;20025;-80
2023/08/31 02:24:31;;;;;;;4.20;0.50;;;;;;;;;;5054382;28;20512;-79
2023/08/31 02:26:57;;;;;;;6.18;0.88;;;;;;;;;;5061885;28;20025;-80
2023/08/31 02:29:23;;;;;;;5.10;0.60;;;;;;;;;;5061065;28;20024;-79
2023/08/31 02:31:49;;;;;;;2.88;0.75;;;;;;;;;;5054228;28;20103;-79
2023/08/31 02:34:15;;;;;;;4.95;0.70;;;;;;;;;;5054303;28;20365;-79
2023/08/31 02:36:41;;;;;;;4.50;0.63;;;;;;;;;;5053803;28;20040;-79
2023/08/31 02:39:07;;;;;;;6.53;0.98;;;;;;;;;;5054198;28;20467;-79
2023/08/31 02:41:33;;;;;;;4.22;0.60;;;;;;;;;;5054495;28;20039;-79
2023/08/31 02:43:59;;;;;;;3.80;0.50;;;;;;;;;;5054164;28;20021;-79
2023/08/31 02:46:25;;;;;;;7.93;0.65;;;;;;;;;;5054550;28;20368;-79
2023/08/31 02:48:51;;;;;;;3.92;0.63;;;;;;;;;;5054057;28;20060;-79
2023/08/31 02:51:17;;;;;;;4.30;0.60;;;;;;;;;;5054459;28;20021;-79
2023/08/31 02:53:43;;;;;;;4.45;0.50;;;;;;;;;;5053737;28;20032;-79
2023/08/31 02:56:09;;;;;;;3.20;0.70;;;;;;;;;;5053893;28;20411;-79
2023/08/31 02:58:35;;;;;;;4.68;0.70;;;;;;;;;;5053441;28;20036;-79
2023/08/31 03:01:11;;;;;;;2.20;0.63;;;;;;;;;;5053623;28;20025;-79
2023/08/31 03:03:40;;;;;;;1.65;0.60;;;;;;;;;;5053820;28;20014;-79
2023/08/31 03:06:09;;;;;;;2.53;0.60;;;;;;;;;;5053965;28;20468;-79
2023/08/31 03:08:36;;;;;;;2.08;0.73;;;;;;;;;;5053923;28;20027;-79
2023/08/31 03:11:02;;;;;;;3.58;0.75;;;;;;;;;;5035391;28;20021;-79
2023/08/31 03:13:28;;;;;;;3.25;0.80;;;;;;;;;;5053659;28;20086;-79
2023/08/31 03:15:56;;;;;;;3.67;1.05;;;;;;;;;;5053234;28;20128;-79
2023/08/31 03:18:22;;;;;;;4.47;1.05;;;;;;;;;;5053375;28;20089;-79
2023/08/31 03:20:48;;;;;;;2.72;0.73;;;;;;;;;;5053263;28;20586;-79
2023/08/31 03:23:15;;;;;;;5.30;1.00;;;;;;;;;;5053256;28;20083;-79
2023/08/31 03:25:41;;;;;;;1.33;0.50;;;;;;;;;;5053492;28;20104;-79
2023/08/31 03:28:07;;;;;;;3.85;0.88;;;;;;;;;;5053382;28;20029;-79
2023/08/31 03:30:33;;;;;;;3.83;0.90;;;;;;;;;;5052892;28;20104;-79
2023/08/31 03:32:59;;;;;;;1.30;0.68;;;;;;;;;;5055517;28;20407;-79
2023/08/31 03:35:28;;;;;;;3.03;0.82;;;;;;;;;;5063204;28;20036;-79
2023/08/31 03:37:55;;;;;;;2.28;0.80;;;;;;;;;;5052960;28;20367;-79
2023/08/31 03:40:22;;;;;;;3.50;1.05;;;;;;;;;;5053189;28;20040;-79
2023/08/31 03:42:48;;;;;;;3.20;0.77;;;;;;;;;;5039906;28;20395;-79
2023/08/31 03:45:14;;;;;;;2.58;0.90;;;;;;;;;;5053217;28;20029;-79
2023/08/31 03:47:41;;;;;;;6.28;1.00;;;;;;;;;;5053231;28;20029;-79
2023/08/31 03:50:08;;;;;;;3.13;0.90;;;;;;;;;;5053385;28;20032;-78
2023/08/31 03:52:34;;;;;;;2.95;1.40;;;;;;;;;;5053417;28;20084;-79
2023/08/31 03:55:00;;;;;;;3.78;1.08;;;;;;;;;;5053489;28;20029;-79
2023/08/31 03:57:26;;;;;;;3.40;1.05;;;;;;;;;;5052644;28;20036;-78
2023/08/31 03:59:52;;;;;;;4.05;1.30;;;;;;;;;;5053063;28;20392;-79
2023/08/31 04:02:18;;;;;;;2.72;0.88;;;;;;;;;;5052914;28;20029;-79
2023/08/31 04:04:44;;;;;;;2.67;1.00;;;;;;;;;;5052972;28;20031;-79
2023/08/31 04:07:10;;;;;;;1.48;0.90;;;;;;;;;;5056453;28;20100;-79
2023/08/31 04:09:36;;;;;;;4.32;1.05;;;;;;;;;;5056559;28;20368;-79
2023/08/31 04:12:03;;;;;;;2.20;0.80;;;;;;;;;;5056590;28;20090;-79
2023/08/31 04:14:29;;;;;;;2.17;1.13;;;;;;;;;;5056877;28;20648;-79
2023/08/31 04:16:55;;;;;;;3.05;0.90;;;;;;;;;;5056449;28;20044;-79
2023/08/31 04:19:22;;;;;;;4.75;1.08;;;;;;;;;;5056489;28;20025;-79
2023/08/31 04:21:48;;;;;;;2.78;0.90;;;;;;;;;;5056582;28;20021;-79
2023/08/31 04:24:14;;;;;;;2.25;1.00;;;;;;;;;;5056657;28;20391;-79
2023/08/31 04:26:40;;;;;;;0.82;0.70;;;;;;;;;;5043508;28;20057;-79
2023/08/31 04:29:06;;;;;;;1.23;0.90;;;;;;;;;;5056354;28;20056;-79
2023/08/31 04:31:39;;;;;;;3.38;0.80;;;;;;;;;;5056673;28;20029;-78
2023/08/31 04:34:05;;;;;;;0.93;0.82;;;;;;;;;;5056273;28;20399;-78
2023/08/31 04:36:31;;;;;;;1.92;0.90;;;;;;;;;;5056273;28;20037;-79
2023/08/31 04:38:57;;;;;;;4.65;0.80;;;;;;;;;;5057681;28;20032;-79
2023/08/31 04:41:23;;;;;;;2.25;0.85;;;;;;;;;;5058089;28;20365;-79
2023/08/31 04:43:49;;;;;;;2.28;0.95;;;;;;;;;;5057676;28;20040;-79
2023/08/31 04:46:15;;;;;;;3.03;0.80;;;;;;;;;;5057733;28;20036;-79
2023/08/31 04:48:41;;;;;;;2.72;1.08;;;;;;;;;;5057330;28;20080;-79
2023/08/31 04:51:07;;;;;;;2.45;0.90;;;;;;;;;;5058673;28;20052;-79
2023/08/31 04:53:33;;;;;;;3.53;0.77;;;;;;;;;;5056911;28;20376;-79
2023/08/31 04:55:59;;;;;;;3.15;0.90;;;;;;;;;;5057347;28;20036;-79
2023/08/31 04:58:25;;;;;;;2.25;0.85;;;;;;;;;;5070565;28;20097;-79
2023/08/31 05:00:52;;;;;;;1.88;0.70;;;;;;;;;;5057234;28;20032;-79
2023/08/31 05:03:18;;;;;;;3.70;0.90;;;;;;;;;;5057435;28;20056;-79
2023/08/31 05:05:44;;;;;;;3.00;1.00;;;;;;;;;;5057135;28;20384;-79
2023/08/31 05:08:10;;;;;;;4.32;0.95;;;;;;;;;;5058204;28;20108;-79
2023/08/31 05:10:36;;;;;;;2.75;0.73;;;;;;;;;;5056962;28;20036;-79
2023/08/31 05:13:10;;;;;;;4.10;1.00;;;;;;;;;;5069979;28;20028;-79
2023/08/31 05:15:36;;;;;;;3.33;1.10;;;;;;;;;;5039946;28;20053;-79
2023/08/31 05:18:03;;;;;;;3.15;0.80;;;;;;;;;;5056856;28;20028;-79
2023/08/31 05:20:29;;;;;;;1.85;0.80;;;;;;;;;;5038315;28;20033;-79
2023/08/31 05:22:55;;;;;;;5.40;1.10;;;;;;;;;;5048020;28;20021;-79
2023/08/31 05:25:21;;;;;;;2.78;0.90;;;;;;;;;;5057817;28;20353;-79
2023/08/31 05:27:47;;;;;;;4.40;1.00;;;;;;;;;;5056732;28;20526;-79
2023/08/31 05:30:13;;;;;;;2.35;0.93;;;;;;;;;;5055733;28;20025;-79
2023/08/31 05:32:39;;;;;;;3.05;1.27;;;;;;;;;;5055256;28;20027;-78
2023/08/31 05:35:05;;;;;;;3.90;1.35;;;;;;;;;;5055497;28;20029;-78
2023/08/31 05:37:35;;;;;;;7.40;1.38;;;;;;;;;;5069273;28;20056;-78
2023/08/31 05:40:01;;;;;;;2.22;1.08;;;;;;;;;;5076761;28;20021;-79
2023/08/31 05:42:27;;;;;;;3.80;1.20;;;;;;;;;;5076010;28;20028;-79
2023/08/31 05:44:53;;;;;;;3.67;1.05;;;;;;;;;;5076032;28;20070;-79
2023/08/31 05:47:19;;;;;;;4.85;1.25;;;;;;;;;;5075928;28;20112;-78
2023/08/31 05:49:45;;;;;;;2.63;1.20;;;;;;;;;;5052883;28;20021;-79
2023/08/31 05:52:11;;;;;;;4.53;1.05;;;;;;;;;;5056837;28;20067;-79
2023/08/31 05:54:38;;;;;;;1.30;1.00;;;;;;;;;;5050200;28;20029;-79
2023/08/31 05:57:05;;;;;;;4.63;1.40;;;;;;;;;;5061875;28;20033;-78
2023/08/31 05:59:31;;;;;;;3.45;1.20;;;;;;;;;;5074943;28;20063;-79
2023/08/31 06:01:57;;;;;;;2.00;0.80;;;;;;;;;;5056491;28;20021;-79
2023/08/31 06:04:23;;;;;;;4.38;0.90;;;;;;;;;;5055345;28;20411;-79
2023/08/31 06:06:53;;;;;;;2.17;0.57;;;;;;;;;;5055675;28;20079;-80
2023/08/31 06:09:20;;;;;;;5.22;1.33;;;;;;;;;;5057795;28;20531;-80
2023/08/31 06:11:46;;;;;;;1.38;0.70;;;;;;;;;;5056903;28;20021;-78
2023/08/31 06:14:12;;;;;;;1.70;0.60;;;;;;;;;;5054076;28;20036;-78
2023/08/31 06:16:38;;;;;;;4.00;0.80;;;;;;;;;;5054719;28;20053;-79
2023/08/31 06:19:05;;;;;;;2.97;0.43;;;;;;;;;;5038334;28;20445;-79
2023/08/31 06:21:31;;;;;;;3.15;0.70;;;;;;;;;;5052424;28;20037;-79
2023/08/31 06:23:57;;;;;;;2.63;0.60;;;;;;;;;;5054959;28;20029;-78
2023/08/31 06:26:23;;;;;;;1.48;0.30;;;;;;;;;;5056588;28;20028;-79
2023/08/31 06:28:50;;;;;;;3.05;0.50;;;;;;;;;;5064084;28;20035;-79
2023/08/31 06:31:16;;;;;;;3.42;0.50;;;;;;;;;;5044406;28;20022;-79
2023/08/31 06:33:42;;;;;;;0.77;0.40;;;;;;;;;;5035645;28;20078;-79
2023/08/31 06:36:08;;;;;;;2.03;0.60;;;;;;;;;;5035224;28;20030;-80
2023/08/31 06:38:37;;;;;;;0.63;0.30;;;;;;;;;;5053554;28;20028;-80
2023/08/31 06:41:03;;;;;;;3.20;0.52;;;;;;;;;;5048884;28;20123;-80
2023/08/31 06:43:30;;;;;;;3.85;0.50;;;;;;;;;;5056077;28;20034;-80
2023/08/31 06:45:56;;;;;;;1.85;0.60;;;;;;;;;;5051744;28;20108;-80
2023/08/31 06:48:22;;;;;;;0.85;0.35;;;;;;;;;;5055148;28;20033;-80
2023/08/31 06:50:48;;;;;;;1.10;0.32;;;;;;;;;;5054528;28;20025;-77
2023/08/31 06:53:14;;;;;;;0.85;0.43;;;;;;;;;;5053968;28;20099;-77
2023/08/31 06:55:40;;;;;;;3.35;0.50;;;;;;;;;;5040599;28;20109;-77
2023/08/31 06:58:06;;;;;;;2.35;0.40;;;;;;;;;;5054219;28;20033;-78
2023/08/31 07:00:32;;;;;;;1.17;0.57;;;;;;;;;;5036517;28;20139;-78
2023/08/31 07:02:58;;;;;;;1.60;0.40;;;;;;;;;;5054133;28;20025;-78
2023/08/31 07:05:26;;;;;;;2.90;0.50;;;;;;;;;;5054609;28;20029;-78
2023/08/31 07:07:55;;;;;;;2.28;0.50;;;;;;;;;;5040909;28;20029;-78
2023/08/31 07:10:21;;;;;;;1.27;0.40;;;;;;;;;;5051332;28;20079;-80
2023/08/31 07:12:47;;;;;;;1.30;0.22;;;;;;;;;;5054689;28;20021;-79
2023/08/31 07:15:13;;;;;;;1.77;0.30;;;;;;;;;;5054610;28;20029;-80
2023/08/31 07:17:39;;;;;;;1.70;0.30;;;;;;;;;;5055762;28;20033;-79
2023/08/31 07:20:11;;;;;;;2.42;0.30;;;;;;;;;;5054797;28;20456;-79
2023/08/31 07:22:37;;;;;;;1.05;0.38;;;;;;;;;;5055680;28;20028;-79
2023/08/31 07:25:04;;;;;;;0.77;0.40;;;;;;;;;;5055230;28;20025;-79
2023/08/31 07:27:30;;;;;;;0.95;0.40;;;;;;;;;;5066356;28;20032;-79
2023/08/31 07:29:56;;;;;;;1.63;0.38;;;;;;;;;;5075335;28;20583;-79
2023/08/31 07:32:22;;;;;;;2.40;0.57;;;;;;;;;;5041260;28;20068;-79
2023/08/31 07:34:48;;;;;;;2.50;0.47;;;;;;;;;;5054764;28;20025;-79
2023/08/31 07:37:14;;;;;;;2.05;0.40;;;;;;;;;;5054381;28;20041;-79
2023/08/31 07:39:40;;;;;;;1.58;0.20;;;;;;;;;;5059390;28;20021;-79
2023/08/31 07:42:06;;;;;;;1.05;0.30;;;;;;;;;;5059376;28;20023;-79
2023/08/31 07:44:32;;;;;;;1.48;0.30;;;;;;;;;;5041453;28;20028;-79
2023/08/31 07:46:58;;;;;;;1.38;0.30;;;;;;;;;;5059864;28;20081;-79
2023/08/31 07:49:24;;;;;;;3.17;0.50;;;;;;;;;;5070783;28;20032;-80
2023/08/31 07:51:50;;;;;;;1.17;0.40;;;;;;;;;;5079413;28;20025;-79
2023/08/31 07:54:20;;;;;;;2.10;0.50;;;;;;;;;;5079905;28;20016;-80
2023/08/31 07:56:46;;;;;;;3.17;0.65;;;;;;;;;;5079388;28;20051;-80
2023/08/31 07:59:13;;;;;;;2.75;0.57;;;;;;;;;;5046856;28;20360;-80
2023/08/31 08:01:39;;;;;;;3.45;0.45;;;;;;;;;;5059178;28;20018;-80
2023/08/31 08:04:06;;;;;;;1.60;0.38;;;;;;;;;;5059406;28;20025;-80
2023/08/31 08:06:32;;;;;;;1.27;0.40;;;;;;;;;;5067808;28;20032;-80
2023/08/31 08:08:58;;;;;;;1.58;0.30;;;;;;;;;;5059664;28;20616;-80
2023/08/31 08:11:24;;;;;;;1.92;0.35;;;;;;;;;;5059407;28;20095;-80
2023/08/31 08:13:50;;;;;;;1.23;0.50;;;;;;;;;;5060738;28;20091;-80
2023/08/31 08:16:16;;;;;;;1.20;0.30;;;;;;;;;;5063740;28;20613;-80
2023/08/31 08:18:42;;;;;;;0.95;0.40;;;;;;;;;;5061663;28;20032;-80
2023/08/31 08:21:08;;;;;;;0.77;0.22;;;;;;;;;;5059474;28;20040;-80
2023/08/31 08:23:34;;;;;;;2.53;0.55;;;;;;;;;;5065019;28;20028;-80
2023/08/31 08:26:00;;;;;;;2.25;0.32;;;;;;;;;;5079921;28;20028;-80
2023/08/31 08:28:26;;;;;;;0.77;0.20;;;;;;;;;;5079551;28;20032;-80
2023/08/31 08:30:52;;;;;;;0.95;0.30;;;;;;;;;;5079094;28;20027;-80
2023/08/31 08:33:18;;;;;;;0.40;0.35;;;;;;;;;;5041176;28;20104;-79
2023/08/31 08:35:44;;;;;;;0.40;0.20;;;;;;;;;;5064279;28;20080;-81
2023/08/31 08:38:10;;;;;;;1.25;0.52;;;;;;;;;;5043542;28;20492;-81
2023/08/31 08:40:36;;;;;;;1.38;0.45;;;;;;;;;;5064970;28;20035;-81
2023/08/31 08:43:02;;;;;;;1.35;0.20;;;;;;;;;;5070205;28;20028;-81
2023/08/31 08:45:38;;;;;;;2.58;0.43;;;;;;;;;;5043909;28;20414;-81
2023/08/31 08:48:07;;;;;;;1.10;0.40;;;;;;;;;;5048506;28;20036;-80
2023/08/31 08:50:34;;;;;;;1.50;0.60;;;;;;;;;;5060476;28;20025;-80
2023/08/31 08:53:01;;;;;;;2.58;0.30;;;;;;;;;;5059947;28;20036;-81
2023/08/31 08:55:28;;;;;;;1.40;0.35;;;;;;;;;;5059548;28;20021;-81
2023/08/31 08:57:53;;;;;;;1.23;0.40;;;;;;;;;;5055808;28;20068;-81
2023/08/31 09:00:20;;;;;;;2.42;0.50;;;;;;;;;;5057437;28;20086;-80
2023/08/31 09:02:46;;;;;;;3.08;0.57;;;;;;;;;;5066822;28;20031;-81
2023/08/31 09:05:12;;;;;;;1.38;0.47;;;;;;;;;;5061457;28;20492;-81
2023/08/31 09:07:39;;;;;;;5.45;0.40;;;;;;;;;;5069593;28;20025;-81
2023/08/31 09:10:05;;;;;;;2.03;0.50;;;;;;;;;;5042739;28;20037;-81
2023/08/31 09:12:31;;;;;;;0.55;0.32;;;;;;;;;;5041764;28;20077;-81
2023/08/31 09:15:06;;;;;;;1.70;0.40;;;;;;;;;;5056575;28;20057;-77
2023/08/31 09:17:47;;;;;;;3.78;0.50;;;;;;;;;;5053543;28;20048;-78
2023/08/31 09:20:13;;;;;;;1.45;0.40;;;;;;;;;;5053421;28;20015;-78
2023/08/31 09:22:44;;;;;;;3.00;0.50;;;;;;;;;;5054204;28;20472;-78
2023/08/31 09:25:10;;;;;;;2.10;0.45;;;;;;;;;;5053595;28;20018;-78
2023/08/31 09:27:40;;;;;;;2.28;0.50;;;;;;;;;;5053726;28;20360;-78
2023/08/31 09:30:07;;;;;;;;;;;;;;;;;;5054000;28;20039;-77
2023/08/31 09:32:33;;;;;;;1.02;0.50;;;;;;;;;;5053155;28;19915;-78
2023/08/31 09:35:02;;;;;;;2.63;0.50;;;;;;;;;;5053510;28;20025;-78
2023/08/31 09:37:28;;;;;;;1.17;0.40;;;;;;;;;;5053369;28;20029;-77
2023/08/31 09:39:54;;;;;;;2.30;0.47;;;;;;;;;;5052771;28;20695;-77
2023/08/31 09:42:21;;;;;;;1.50;0.70;;;;;;;;;;5053413;28;20021;-77
2023/08/31 09:44:49;;;;;;;2.42;0.63;;;;;;;;;;5053988;28;20029;-78
2023/08/31 09:47:17;;;;;;;1.80;0.70;;;;;;;;;;5054227;28;20100;-78
2023/08/31 09:49:43;;;;;;;2.65;0.57;;;;;;;;;;5052936;28;20107;-77
2023/08/31 09:52:09;;;;;;;2.28;0.60;;;;;;;;;;5054288;28;20020;-78
2023/08/31 09:54:36;;;;;;;2.92;0.60;;;;;;;;;;5035743;28;20020;-78
2023/08/31 09:57:02;;;;;;;1.73;0.57;;;;;;;;;;5053174;28;20037;-78
2023/08/31 09:59:28;;;;;;;3.22;0.77;;;;;;;;;;5053800;28;20066;-78
2023/08/31 10:01:56;;;;;;;1.63;0.60;;;;;;;;;;5070766;28;20056;-78
2023/08/31 10:04:22;;;;;;;4.35;0.50;;;;;;;;;;5032047;28;20037;-78
2023/08/31 10:06:49;;;;;;;1.40;0.47;;;;;;;;;;5051267;28;20131;-78
2023/08/31 10:09:15;;;;;;;2.97;0.80;;;;;;;;;;5047702;28;20040;-78
2023/08/31 10:11:42;;;;;;;3.40;0.68;;;;;;;;;;5031289;28;20086;-78
2023/08/31 10:14:09;;;;;;;2.10;0.40;;;;;;;;;;5047166;28;20031;-78
2023/08/31 10:16:36;;;;;;;1.13;0.30;;;;;;;;;;5046295;28;20081;-78
2023/08/31 10:19:03;;;;;;;2.35;0.63;;;;;;;;;;5042367;28;20495;-78
2023/08/31 10:21:29;;;;;;;1.08;0.38;;;;;;;;;;5045365;28;20036;-77
2023/08/31 10:23:55;;;;;;;0.82;0.45;;;;;;;;;;5045949;28;20033;-78
2023/08/31 10:26:27;;;;;;;0.45;0.40;;;;;;;;;;5043020;28;20025;-78
2023/08/31 10:28:54;;;;;;;1.27;0.85;;;;;;;;;;5043470;28;20022;-78
2023/08/31 10:31:24;;;;;;;1.98;0.95;;;;;;;;;;5044370;28;20021;-78
2023/08/31 10:34:00;;;;;;;2.03;0.52;;;;;;;;;;5043737;28;20021;-78
2023/08/31 10:36:35;;;;;;;0.98;0.43;;;;;;;;;;5068049;28;20406;-78
2023/08/31 10:39:05;;;;;;;1.38;0.40;;;;;;;;;;5047861;28;20056;-78
2023/08/31 10:41:31;;;;;;;;;;;;;;;;;;5041948;28;20082;-78
2023/08/31 10:43:57;;;;;;;0.88;0.40;;;;;;;;;;5053908;28;19912;-78
2023/08/31 10:46:34;;;;;;;1.23;0.30;;;;;;;;;;5052817;28;20037;-78
2023/08/31 10:49:12;;;;;;;1.88;0.50;;;;;;;;;;5056654;28;20108;-77
2023/08/31 10:51:39;;;;;;;0.85;0.43;;;;;;;;;;5058287;28;20021;-76
2023/08/31 10:54:26;;;;;;;1.15;0.32;;;;;;;;;;5054175;28;20431;-77
2023/08/31 10:56:54;;;;;;;1.00;0.50;;;;;;;;;;5051351;28;20412;-76
2023/08/31 10:59:21;;;;;;;3.22;0.60;;;;;;;;;;5054769;28;20037;-76
2023/08/31 11:02:02;;;;;;;1.05;0.40;;;;;;;;;;5053150;28;20044;-76
2023/08/31 11:04:29;;;;;;;3.85;0.60;;;;;;;;;;5048959;28;20116;-76
2023/08/31 11:07:14;;;;;;;1.80;0.70;;;;;;;;;;5044989;28;20029;-76
2023/08/31 11:09:40;;;;;;;3.20;0.70;;;;;;;;;;5054111;28;20507;-76
2023/08/31 11:12:07;;;;;;;5.68;0.73;;;;;;;;;;5051650;28;20029;-77
2023/08/31 11:14:33;;;;;;;1.75;0.80;;;;;;;;;;5049767;28;20058;-76
2023/08/31 11:17:00;;;;;;;4.25;0.88;;;;;;;;;;5050840;28;20045;-77
2023/08/31 11:19:26;;;;;;;6.07;1.08;;;;;;;;;;5051686;28;20104;-78
2023/08/31 11:21:52;;;;;;;2.17;0.57;;;;;;;;;;5021752;28;20116;-78
2023/08/31 11:24:21;;;;;;;4.55;0.70;;;;;;;;;;5047830;28;20096;-78
2023/08/31 11:26:48;;;;;;;4.03;0.95;;;;;;;;;;5051479;28;20032;-78
2023/08/31 11:29:15;;;;;;;2.90;0.68;;;;;;;;;;5051319;28;20021;-78
2023/08/31 11:31:41;;;;;;;6.03;1.02;;;;;;;;;;5065632;28;20052;-78
2023/08/31 11:34:12;;;;;;;3.00;0.50;;;;;;;;;;5043097;28;20021;-76
2023/08/31 11:36:38;;;;;;;4.18;0.70;;;;;;;;;;5050111;28;20047;-77
2023/08/31 11:39:04;;;;;;;2.28;0.70;;;;;;;;;;5049070;28;20057;-76
2023/08/31 11:41:33;;;;;;;1.70;0.70;;;;;;;;;;5032623;28;20514;-76
2023/08/31 11:43:59;;;;;;;4.10;0.85;;;;;;;;;;5051673;28;20369;-77
2023/08/31 11:46:26;;;;;;;5.85;1.40;;;;;;;;;;5051912;28;20040;-77
2023/08/31 11:48:54;;;;;;;2.75;0.68;;;;;;;;;;5051733;28;20140;-76
2023/08/31 11:51:20;;;;;;;4.15;0.80;;;;;;;;;;5048765;28;20040;-77
2023/08/31 11:53:46;;;;;;;4.80;0.70;;;;;;;;;;5037402;28;20027;-77
2023/08/31 11:56:12;;;;;;;2.40;0.95;;;;;;;;;;5051926;28;20480;-77
2023/08/31 11:58:46;;;;;;;3.85;0.80;;;;;;;;;;5052678;28;20083;-77
2023/08/31 12:01:19;;;;;;;2.30;0.77;;;;;;;;;;5051149;28;20021;-77
2023/08/31 12:03:45;;;;;;;2.92;0.60;;;;;;;;;;5051978;28;20021;-77
2023/08/31 12:06:11;;;;;;;1.40;0.50;;;;;;;;;;5057898;28;20078;-77
2023/08/31 12:08:38;;;;;;;1.65;0.47;;;;;;;;;;5051641;28;20527;-77
2023/08/31 12:11:06;;;;;;;1.58;0.40;;;;;;;;;;5057442;28;20012;-77
2023/08/31 12:13:32;;;;;;;1.77;0.43;;;;;;;;;;5055247;28;20025;-77
2023/08/31 12:15:58;;;;;;;2.88;0.75;;;;;;;;;;5051302;28;20048;-78
2023/08/31 12:18:24;;;;;;;4.22;0.60;;;;;;;;;;5051765;28;20419;-77
2023/08/31 12:20:51;;;;;;;1.38;0.60;;;;;;;;;;5029107;28;20030;-76
2023/08/31 12:23:21;;;;;;;4.15;0.77;;;;;;;;;;5045772;28;20021;-76
2023/08/31 12:25:51;;;;;;;2.47;0.43;;;;;;;;;;5043701;28;20056;-76
2023/08/31 12:28:18;;;;;;;3.72;0.85;;;;;;;;;;5050188;28;20032;-76
2023/08/31 12:30:49;;;;;;;5.45;1.80;;;;;;;;;;5041496;28;20025;-76
2023/08/31 12:33:15;;;;;;;4.10;0.73;;;;;;;;;;5054982;28;20021;-76
2023/08/31 12:35:41;;;;;;;3.78;0.90;;;;;;;;;;5043157;28;20479;-76
2023/08/31 12:38:07;;;;;;;4.30;1.17;;;;;;;;;;5044222;28;20061;-76
2023/08/31 12:40:33;;;;;;;3.63;0.90;;;;;;;;;;5048178;28;20456;-76
2023/08/31 12:42:59;;;;;;;4.78;0.77;;;;;;;;;;5042052;28;20017;-76
2023/08/31 12:45:25;;;;;;;2.92;0.70;;;;;;;;;;5054156;28;20112;-76
2023/08/31 12:47:51;;;;;;;3.83;0.82;;;;;;;;;;5047085;28;20053;-77
2023/08/31 12:50:17;;;;;;;2.53;1.05;;;;;;;;;;5063419;28;20025;-77
2023/08/31 12:52:45;;;;;;;4.55;0.77;;;;;;;;;;5038958;28;20079;-77
2023/08/31 12:55:12;;;;;;;3.75;1.90;;;;;;;;;;5063030;28;20116;-76
2023/08/31 12:57:38;;;;;;;4.25;1.25;;;;;;;;;;5054414;28;20122;-77
2023/08/31 13:00:05;;;;;;;4.60;1.60;;;;;;;;;;5054861;28;20094;-76
2023/08/31 13:02:31;;;;;;;3.10;1.20;;;;;;;;;;5054453;28;20116;-76
2023/08/31 13:04:57;;;;;;;3.05;0.70;;;;;;;;;;5051393;28;20025;-76
2023/08/31 13:07:23;;;;;;;2.40;0.90;;;;;;;;;;5051867;28;20738;-76
2023/08/31 13:09:49;;;;;;;2.75;0.77;;;;;;;;;;5061453;28;20491;-76
2023/08/31 13:12:15;;;;;;;2.60;0.77;;;;;;;;;;5051462;28;20040;-77
2023/08/31 13:14:44;;;;;;;3.38;0.73;;;;;;;;;;5054250;28;20029;-76
2023/08/31 13:17:10;;;;;;;3.35;0.60;;;;;;;;;;5053388;28;20077;-76
2023/08/31 13:19:36;;;;;;;1.55;0.65;;;;;;;;;;5054377;28;20029;-77
2023/08/31 13:22:02;;;;;;;2.58;0.55;;;;;;;;;;5054085;28;20078;-77
2023/08/31 13:24:28;;;;;;;3.08;0.70;;;;;;;;;;5067409;28;20025;-76
2023/08/31 13:26:54;;;;;;;3.72;0.93;;;;;;;;;;5053990;28;20378;-76
2023/08/31 13:29:20;;;;;;;1.45;0.40;;;;;;;;;;5067170;28;20036;-76
2023/08/31 13:31:46;;;;;;;3.55;0.70;;;;;;;;;;5067106;28;20029;-76
2023/08/31 13:34:13;;;;;;;2.65;0.82;;;;;;;;;;5053912;28;20079;-76
2023/08/31 13:36:39;;;;;;;5.45;0.70;;;;;;;;;;5053947;28;20068;-76
2023/08/31 13:39:07;;;;;;;4.82;0.90;;;;;;;;;;5062565;28;20059;-76
2023/08/31 13:41:33;;;;;;;3.25;0.93;;;;;;;;;;5057945;28;20017;-76
2023/08/31 13:43:59;;;;;;;4.90;1.00;;;;;;;;;;5053535;28;20380;-77
2023/08/31 13:46:25;;;;;;;4.72;0.90;;;;;;;;;;5022389;28;20100;-77
2023/08/31 13:48:51;;;;;;;3.92;0.80;;;;;;;;;;5053515;28;20464;-76
2023/08/31 13:51:17;;;;;;;1.48;0.40;;;;;;;;;;5053421;28;20041;-76
2023/08/31 13:53:43;;;;;;;4.70;0.80;;;;;;;;;;5053528;28;20097;-76
2023/08/31 13:56:09;;;;;;;3.08;0.90;;;;;;;;;;5044654;28;20028;-76
2023/08/31 13:58:35;;;;;;;2.65;0.80;;;;;;;;;;5053659;28;20036;-77
2023/08/31 14:01:03;;;;;;;3.15;0.88;;;;;;;;;;5052159;28;20134;-78
2023/08/31 14:03:29;;;;;;;3.50;0.77;;;;;;;;;;5053629;28;20460;-77
2023/08/31 14:05:55;;;;;;;3.38;0.85;;;;;;;;;;5052382;28;20020;-77
2023/08/31 14:08:21;;;;;;;2.75;1.00;;;;;;;;;;5060553;28;20035;-78
2023/08/31 14:10:47;;;;;;;4.88;0.60;;;;;;;;;;5057741;28;20024;-79
2023/08/31 14:13:13;;;;;;;2.83;0.68;;;;;;;;;;5054239;28;20514;-79
2023/08/31 14:15:46;;;;;;;3.90;1.05;;;;;;;;;;5048760;28;20505;-79
2023/08/31 14:18:12;;;;;;;2.10;0.88;;;;;;;;;;5033630;28;20057;-76
2023/08/31 14:20:38;;;;;;;3.65;0.90;;;;;;;;;;5033901;28;20064;-77
2023/08/31 14:23:05;;;;;;;4.65;0.85;;;;;;;;;;5033629;28;20026;-77
2023/08/31 14:25:34;;;;;;;2.58;0.88;;;;;;;;;;5036059;28;20031;-78
2023/08/31 14:28:00;;;;;;;2.08;0.47;;;;;;;;;;5032621;28;20029;-78
2023/08/31 14:30:26;;;;;;;3.22;1.02;;;;;;;;;;5015317;28;20072;-78
2023/08/31 14:32:53;;;;;;;3.63;0.95;;;;;;;;;;5025914;28;20036;-78
2023/08/31 14:35:19;;;;;;;3.95;0.60;;;;;;;;;;5034659;28;20021;-78
2023/08/31 14:37:45;;;;;;;3.03;0.73;;;;;;;;;;5016998;28;20061;-78
2023/08/31 14:40:11;;;;;;;5.40;0.82;;;;;;;;;;5051876;28;20114;-78
2023/08/31 14:42:37;;;;;;;3.03;0.80;;;;;;;;;;5034434;28;20026;-78